Accueil
METAR-TAF:

METAR-TAF

Aéroports :

Aéroport de Rouyn-Noranda

Rouyn-Noranda, Québec, Canada

latitude: 48-12N, longitude: 078-50W, altitude: 301 m

Observation

Le bulletin a été fait il y a 1 heure et 8 minutes, à 05:00 UTC
Vent calme
Température -1°C
Humidité 80%
Pression 1007 hPa
Visibilité: 24.1 km
Quelques nuages à une hauteur de 24000 ft

METAR: CYUY 210500Z 00000KT 15SM FEW240 M01/M04 A2975 RMK CI1 SLP087

Heure: 02:08 (06:08 UTC)

Prévision

Le bulletin a été fait il y a 29 minutes, à 05:39 UTC
Prévision valable du 21 à 06 UTC au 21 à 18 UTC
Vent 3 kt de direction variable
Visibilité: 10 km
Ciel clair
Evoluant progressivement
du 21 à 10 UTC au 21 à 12 UTC
Nuages fragmentés à une hauteur de 8000 ft
A partir de 21 à 1500 UTC
Vent 8 kt de nord/nord-ouest
Visibilité: 10 km
Nuages épars à une hauteur de 5000 ft

TAF: CYUY 210539Z 2106/2118 VRB03KT P6SM SKC BECMG 2110/2112 BKN080 FM211500 33008KT P6SM SCT050 RMK NXT FCST BY 211200Z

Observations et prévisions météorologiques de plus de 4000 aéroports (messages METAR et TAF).

Les stations disponibles sont représentées par des disques jaunes et rouges sur la carte.

Passer la souris dessus pour voir le nom de la station.

Cliquer dessus pour voir les observations et prévisions météorologiques.

Pour changer de carte: cliquez sur les boutons verts avec une croix noire pour zoomer, sur le bouton vert avec un tiret pour effectuer un zoom arrière, ou sur les flèches vertes pour les cartes adjacentes.


METAR-TAF: